Delhi, Canada
Current Conditions -  °F | °C
As of 3:00 AM on Sunday 26 Oct 2014 (Local Time) from CYXU Reporting Station
Clear Clear  
Wind Chill:   Ceiling: Unl
Heat Index:   Visibility: 15mi
Dew Point:   Wind: 10mph
Humidity: 66%   Direction: 290°WNW
Pressure: 29.73"   Gusts: NA
Location:  42.85°N, 80.49°W
Report Text: CYXU 260700Z 29009KT 15SM SKC 08/02 A2973 RMK SLP069
Loading
Personal Weather Stations






























Interactive Weather Map
Tropical Storm Tracking
New forecast layout! Learn more

10-Day Weather Forecast

Advertisements
Track Severe Weather on mobile